Time;durP1;ratioP1;P1;durP2;ratioP2;P2;SDS_P1;SDS_P2;PMS_P1;PMS_P2;Temp;Humidity;BMP_temperature;BMP_pressure;BME280_temperature;BME280_humidity;BME280_pressure;Samples;Min_cycle;Max_cycle;Signal;HPM_P1;HPM_P2
2022/12/14 00:01:45;;;;;;;6.32;5.82;;;23.10;29.80;;;;;;6089990;23;20450;-62
2022/12/14 00:04:11;;;;;;;6.20;5.70;;;23.10;29.80;;;;;;6116843;23;20017;-63
2022/12/14 00:06:36;;;;;;;6.28;5.78;;;23.10;29.70;;;;;;6089274;23;20077;-63
2022/12/14 00:09:03;;;;;;;6.50;5.90;;;23.10;29.70;;;;;;6115850;23;20010;-63
2022/12/14 00:11:30;;;;;;;6.03;5.47;;;23.10;29.70;;;;;;6115730;23;20044;-63
2022/12/14 00:13:58;;;;;;;6.10;5.60;;;23.10;29.70;;;;;;6116508;23;20096;-63
2022/12/14 00:16:26;;;;;;;6.55;5.93;;;23.10;29.70;;;;;;6116304;23;20096;-62
2022/12/14 00:18:54;;;;;;;6.13;5.60;;;23.10;29.70;;;;;;6066129;23;20659;-63
2022/12/14 00:21:20;;;;;;;6.30;5.70;;;23.10;29.60;;;;;;6089488;23;20633;-62
2022/12/14 00:23:51;;;;;;;6.18;5.60;;;23.10;29.60;;;;;;6089138;23;20021;-62
2022/12/14 00:26:25;;;;;;;5.85;5.35;;;23.10;29.60;;;;;;6115920;23;20018;-62
2022/12/14 00:28:53;;;;;;;6.00;5.50;;;23.10;29.50;;;;;;6089606;23;20768;-62
2022/12/14 00:31:19;;;;;;;6.22;5.63;;;23.00;29.50;;;;;;6115634;23;20029;-62
2022/12/14 00:33:45;;;;;;;6.95;6.35;;;23.00;29.50;;;;;;6116789;23;20022;-62
2022/12/14 00:36:11;;;;;;;6.10;5.60;;;23.00;29.50;;;;;;6116420;23;20599;-62
2022/12/14 00:38:38;;;;;;;6.70;5.97;;;22.90;29.40;;;;;;6089410;23;20104;-62
2022/12/14 00:41:04;;;;;;;6.60;6.00;;;23.00;29.40;;;;;;6115906;23;20014;-61
2022/12/14 00:43:29;;;;;;;6.25;5.75;;;23.00;29.30;;;;;;6091066;23;20033;-62
2022/12/14 00:45:55;;;;;;;6.53;5.93;;;23.10;29.30;;;;;;6114658;23;20085;-62
2022/12/14 00:48:22;;;;;;;6.22;5.72;;;23.10;29.20;;;;;;6116460;23;20022;-62
2022/12/14 00:50:49;;;;;;;6.07;5.57;;;23.20;29.20;;;;;;6115641;23;20096;-62
2022/12/14 00:53:16;;;;;;;6.60;6.00;;;23.10;29.10;;;;;;6066255;23;20652;-64
2022/12/14 00:55:43;;;;;;;6.82;6.18;;;23.20;29.10;;;;;;6089533;23;20121;-62
2022/12/14 00:58:14;;;;;;;5.68;5.18;;;23.20;29.10;;;;;;6116353;23;20041;-63
2022/12/14 01:00:39;;;;;;;;;;;23.20;29.00;;;;;;6115344;23;20018;-62
2022/12/14 01:03:05;;;;;;;5.78;5.28;;;23.20;28.90;;;;;;6116794;23;19924;-62
2022/12/14 01:05:33;;;;;;;6.82;6.22;;;23.20;29.10;;;;;;6114355;23;20025;-62
2022/12/14 01:07:59;;;;;;;6.15;5.55;;;23.20;29.00;;;;;;6116483;23;20446;-62
2022/12/14 01:10:25;;;;;;;6.22;5.72;;;23.20;28.90;;;;;;6115212;23;20010;-62
2022/12/14 01:12:51;;;;;;;5.95;5.32;;;23.20;28.90;;;;;;6115677;23;20025;-62
2022/12/14 01:15:17;;;;;;;6.20;5.60;;;23.20;28.90;;;;;;6114586;23;20018;-62
2022/12/14 01:17:42;;;;;;;6.07;5.55;;;23.20;28.90;;;;;;6090097;23;20021;-62
2022/12/14 01:20:09;;;;;;;6.07;5.57;;;23.20;28.90;;;;;;6115547;23;20010;-62
2022/12/14 01:22:36;;;;;;;23.58;6.10;;;23.20;28.90;;;;;;6115756;23;20387;-62
2022/12/14 01:25:03;;;;;;;6.10;5.50;;;23.20;28.90;;;;;;6116063;23;20108;-63
2022/12/14 01:27:29;;;;;;;6.25;5.65;;;23.20;28.80;;;;;;6115885;23;20020;-62
2022/12/14 01:29:54;;;;;;;5.85;5.35;;;23.20;28.80;;;;;;6089112;23;20053;-62
2022/12/14 01:32:20;;;;;;;6.85;6.05;;;23.20;28.80;;;;;;6114752;23;20022;-62
2022/12/14 01:34:47;;;;;;;6.93;6.22;;;23.20;28.80;;;;;;6116215;23;20605;-62
2022/12/14 01:37:13;;;;;;;5.82;5.28;;;23.20;28.80;;;;;;6116551;23;20100;-63
2022/12/14 01:39:39;;;;;;;6.35;5.75;;;23.20;28.80;;;;;;6116657;23;20442;-63
2022/12/14 01:42:11;;;;;;;5.75;5.25;;;23.20;28.70;;;;;;6090511;23;20402;-64
2022/12/14 01:44:42;;;;;;;6.35;5.75;;;23.10;28.70;;;;;;6116327;23;20134;-62
2022/12/14 01:47:31;;;;;;;6.63;6.03;;;23.10;28.80;;;;;;6065065;23;20033;-62
2022/12/14 01:50:08;;;;;;;7.47;6.72;;;23.10;28.80;;;;;;6116189;23;20429;-63
2022/12/14 01:52:40;;;;;;;6.78;6.18;;;22.90;29.00;;;;;;6116599;23;20014;-64
2022/12/14 01:55:14;;;;;;;7.15;6.45;;;22.70;29.10;;;;;;6089715;23;20018;-64
2022/12/14 01:57:53;;;;;;;7.18;6.47;;;22.50;29.10;;;;;;6115802;23;20394;-64
2022/12/14 02:00:20;;;;;;;6.85;6.18;;;22.30;29.30;;;;;;6091396;23;20036;-63
2022/12/14 02:03:22;;;;;;;6.50;5.90;;;22.10;29.30;;;;;;6117568;23;20095;-62
2022/12/14 02:05:59;;;;;;;6.50;5.90;;;22.00;30.00;;;;;;6117353;23;20018;-62
2022/12/14 02:08:26;;;;;;;6.35;5.75;;;21.80;29.90;;;;;;6067484;23;20014;-62
2022/12/14 02:10:53;;;;;;;6.35;5.78;;;21.90;29.90;;;;;;6091910;23;20017;-63
2022/12/14 02:13:30;;;;;;;6.30;5.70;;;22.00;29.80;;;;;;6116769;23;20077;-63
2022/12/14 02:15:56;;;;;;;6.60;6.00;;;22.30;29.50;;;;;;6090917;23;20013;-63
2022/12/14 02:18:27;;;;;;;6.68;6.07;;;22.50;29.30;;;;;;6091910;23;20018;-63
2022/12/14 02:20:53;;;;;;;6.70;6.10;;;22.60;29.10;;;;;;6066843;23;20438;-63
2022/12/14 02:23:46;;;;;;;6.13;5.63;;;22.70;28.90;;;;;;6117407;23;20013;-63
2022/12/14 02:26:43;;;;;;;5.90;5.40;;;22.80;28.80;;;;;;6116564;23;20454;-63
2022/12/14 02:29:41;;;;;;;6.03;5.53;;;22.90;28.60;;;;;;6091771;23;20026;-63
2022/12/14 02:32:30;;;;;;;6.13;5.60;;;23.00;28.60;;;;;;6116129;23;20026;-64
2022/12/14 02:34:58;;;;;;;6.18;5.60;;;23.00;28.50;;;;;;6117575;23;20514;-63
2022/12/14 02:38:02;;;;;;;6.20;5.70;;;23.00;28.50;;;;;;6115110;23;20022;-64
2022/12/14 02:40:37;;;;;;;6.30;5.70;;;23.10;28.40;;;;;;6088905;23;20191;-63
2022/12/14 02:43:11;;;;;;;5.68;5.18;;;23.10;28.40;;;;;;6115805;23;20021;-63
2022/12/14 02:45:40;;;;;;;6.10;5.50;;;23.10;28.30;;;;;;6115194;23;20024;-63
2022/12/14 02:48:23;;;;;;;5.82;5.32;;;23.10;28.40;;;;;;6116711;23;20014;-62
2022/12/14 02:51:15;;;;;;;5.78;5.28;;;23.10;28.20;;;;;;6117037;23;20010;-63
2022/12/14 02:54:12;;;;;;;6.03;5.43;;;23.10;28.20;;;;;;6116555;23;20014;-63
2022/12/14 02:56:44;;;;;;;6.10;5.50;;;23.20;28.10;;;;;;5966046;23;20029;-63
2022/12/14 02:59:10;;;;;;;5.90;5.40;;;23.20;28.20;;;;;;6117897;23;20032;-63
2022/12/14 03:01:37;;;;;;;5.18;4.78;;;23.20;28.20;;;;;;6115641;23;20334;-63
2022/12/14 03:04:03;;;;;;;5.68;5.18;;;23.20;28.20;;;;;;6090855;23;20057;-63
2022/12/14 03:06:29;;;;;;;5.65;5.15;;;23.20;28.80;;;;;;6114431;23;20025;-62
2022/12/14 03:09:16;;;;;;;6.00;5.50;;;23.20;28.10;;;;;;6116803;23;20070;-63
2022/12/14 03:11:54;;;;;;;5.35;4.93;;;23.20;28.00;;;;;;6117079;23;20022;-63
2022/12/14 03:14:24;;;;;;;5.97;5.47;;;23.10;28.00;;;;;;6116628;23;20096;-62
2022/12/14 03:16:50;;;;;;;5.40;4.90;;;23.20;28.10;;;;;;6089913;23;20068;-63
2022/12/14 03:19:25;;;;;;;6.13;5.53;;;23.10;28.10;;;;;;6117869;23;20014;-63
2022/12/14 03:21:55;;;;;;;5.95;5.35;;;23.10;28.00;;;;;;6090341;23;20020;-63
2022/12/14 03:24:28;;;;;;;5.28;4.85;;;23.10;28.00;;;;;;6090993;23;20025;-62
2022/12/14 03:27:00;;;;;;;5.90;5.22;;;23.10;28.00;;;;;;6115445;23;20861;-63
2022/12/14 03:29:30;;;;;;;5.43;5.03;;;23.20;28.00;;;;;;6116819;23;20113;-63
2022/12/14 03:32:00;;;;;;;5.65;5.15;;;23.20;27.90;;;;;;6114546;23;20351;-62
2022/12/14 03:34:36;;;;;;;5.10;4.70;;;23.20;27.90;;;;;;6066696;23;20018;-63
2022/12/14 03:37:29;;;;;;;5.68;5.18;;;23.20;27.90;;;;;;6116367;23;20053;-62
2022/12/14 03:39:55;;;;;;;5.30;4.82;;;23.20;27.90;;;;;;6116243;23;20010;-62
2022/12/14 03:43:13;;;;;;;5.05;4.55;;;23.10;27.90;;;;;;6116489;23;20117;-63
2022/12/14 03:46:01;;;;;;;6.10;5.50;;;23.10;27.70;;;;;;6010815;23;20560;-63
2022/12/14 03:48:33;;;;;;;5.57;5.07;;;23.10;27.70;;;;;;6117106;23;20052;-63
2022/12/14 03:51:43;;;;;;;5.50;5.05;;;23.10;27.90;;;;;;6089596;23;20024;-62
2022/12/14 03:54:23;;;;;;;5.32;4.82;;;23.10;27.70;;;;;;5970136;24;20046;-63
2022/12/14 03:56:55;;;;;;;5.57;5.07;;;23.20;27.90;;;;;;5969597;24;20382;-63
2022/12/14 03:59:38;;;;;;;5.40;5.00;;;23.10;27.80;;;;;;6032062;23;20021;-63
2022/12/14 04:02:20;;;;;;;5.55;5.05;;;23.10;27.70;;;;;;6116437;23;20328;-62
2022/12/14 04:04:52;;;;;;;5.40;4.90;;;23.10;27.70;;;;;;6115814;23;20045;-63
2022/12/14 04:07:40;;;;;;;5.03;4.63;;;23.10;27.70;;;;;;6115887;23;20092;-63
2022/12/14 04:19:01;;;;;;;5.15;4.70;;;23.10;27.70;;;;;;6116789;23;20017;-63
2022/12/14 04:21:41;;;;;;;5.47;4.97;;;23.10;27.60;;;;;;6115025;23;20017;-63
2022/12/14 04:27:07;;;;;;;5.32;4.93;;;23.10;27.60;;;;;;6115591;23;20359;-63
2022/12/14 04:32:26;;;;;;;5.65;5.15;;;23.10;27.60;;;;;;6115627;23;20034;-63
2022/12/14 04:35:20;;;;;;;5.07;4.68;;;23.10;27.50;;;;;;6115123;23;20037;-63
2022/12/14 04:38:15;;;;;;;5.50;5.05;;;23.10;27.40;;;;;;6063424;23;20025;-62
2022/12/14 04:40:59;;;;;;;5.22;4.80;;;23.10;27.50;;;;;;6113655;23;20018;-62
2022/12/14 04:43:34;;;;;;;5.15;4.65;;;23.10;27.50;;;;;;6090029;23;20025;-63
2022/12/14 04:46:11;;;;;;;5.07;4.68;;;23.10;27.50;;;;;;6089520;23;20543;-62
2022/12/14 04:48:49;;;;;;;5.65;5.10;;;23.10;27.50;;;;;;6115892;23;20021;-64
2022/12/14 04:51:26;;;;;;;4.78;4.38;;;23.10;27.40;;;;;;6088960;23;20429;-62
2022/12/14 04:54:03;;;;;;;5.13;4.72;;;23.10;27.40;;;;;;6116781;23;20022;-63
2022/12/14 04:56:49;;;;;;;5.68;5.18;;;23.10;27.40;;;;;;6115206;23;20386;-63
2022/12/14 04:59:15;;;;;;;5.70;5.20;;;23.10;27.30;;;;;;6115895;23;20350;-63
2022/12/14 05:02:02;;;;;;;5.20;4.78;;;23.10;27.40;;;;;;6088533;23;20025;-63
2022/12/14 05:04:55;;;;;;;5.57;5.03;;;23.10;27.30;;;;;;6117021;23;20013;-63
2022/12/14 05:07:58;;;;;;;5.38;4.88;;;23.00;27.40;;;;;;6090449;23;20442;-63
2022/12/14 05:10:33;;;;;;;5.18;4.78;;;23.10;27.30;;;;;;6089903;23;20828;-63
2022/12/14 05:13:20;;;;;;;5.47;4.97;;;23.10;27.30;;;;;;6115690;23;20097;-63
2022/12/14 05:15:53;;;;;;;5.22;4.63;;;23.10;27.30;;;;;;6089671;23;20018;-63
2022/12/14 05:18:19;;;;;;;5.80;5.30;;;23.10;27.30;;;;;;6089472;23;20094;-63
2022/12/14 05:20:48;;;;;;;5.18;4.50;;;23.00;27.30;;;;;;6090119;23;20105;-63
2022/12/14 05:23:15;;;;;;;5.25;4.75;;;23.10;27.30;;;;;;6090590;23;20056;-63
2022/12/14 05:25:41;;;;;;;5.00;4.50;;;23.00;27.20;;;;;;6115157;23;20013;-62
2022/12/14 05:28:07;;;;;;;6.13;5.40;;;23.00;27.80;;;;;;6115899;23;20097;-63
2022/12/14 05:30:33;;;;;;;5.38;4.88;;;23.00;27.20;;;;;;6115377;23;20018;-63
2022/12/14 05:32:59;;;;;;;5.20;4.70;;;23.00;27.20;;;;;;6090446;23;20458;-63
2022/12/14 05:35:25;;;;;;;5.63;5.13;;;23.00;27.20;;;;;;6090438;23;20014;-63
2022/12/14 05:37:50;;;;;;;5.85;5.35;;;23.00;27.20;;;;;;6092401;23;20406;-62
2022/12/14 05:40:16;;;;;;;5.60;5.10;;;23.10;27.30;;;;;;6117733;23;20009;-63
2022/12/14 05:42:42;;;;;;;5.22;4.82;;;23.00;27.20;;;;;;6092565;23;20018;-63
2022/12/14 05:45:10;;;;;;;5.63;5.13;;;23.00;27.10;;;;;;6091833;23;20018;-63
2022/12/14 05:47:36;;;;;;;5.40;4.90;;;23.00;27.10;;;;;;6117754;23;20018;-63
2022/12/14 05:50:01;;;;;;;5.38;4.88;;;23.00;27.10;;;;;;6090752;23;20573;-63
2022/12/14 05:52:27;;;;;;;5.85;4.80;;;23.00;27.10;;;;;;6091272;23;20024;-63
2022/12/14 05:54:53;;;;;;;5.63;5.13;;;23.00;27.10;;;;;;6117760;23;20018;-62
2022/12/14 05:57:19;;;;;;;6.10;5.53;;;23.10;27.10;;;;;;6117155;23;20014;-63
2022/12/14 05:59:45;;;;;;;5.55;5.05;;;23.00;27.00;;;;;;6092012;23;20466;-63
2022/12/14 06:02:11;;;;;;;6.28;5.68;;;23.00;27.00;;;;;;6091087;23;20018;-63
2022/12/14 06:04:36;;;;;;;5.75;5.25;;;23.00;27.10;;;;;;6118197;23;20021;-63
2022/12/14 06:07:02;;;;;;;5.72;5.22;;;23.00;27.00;;;;;;6118194;23;20335;-63
2022/12/14 06:09:28;;;;;;;5.85;5.35;;;23.00;27.60;;;;;;6117176;23;20053;-62
2022/12/14 06:11:54;;;;;;;6.05;5.47;;;23.00;27.00;;;;;;6067618;23;20073;-62
2022/12/14 06:14:20;;;;;;;5.53;5.03;;;23.00;27.00;;;;;;6091588;23;20532;-64
2022/12/14 06:16:46;;;;;;;5.90;5.32;;;23.00;27.00;;;;;;6091295;23;20093;-63
2022/12/14 06:19:13;;;;;;;5.30;4.80;;;23.00;27.00;;;;;;6091156;23;20018;-62
2022/12/14 06:21:40;;;;;;;5.57;5.07;;;23.00;27.00;;;;;;6116588;23;20010;-63
2022/12/14 06:24:07;;;;;;;5.22;4.70;;;22.90;27.00;;;;;;6067743;23;20069;-63
2022/12/14 06:26:39;;;;;;;6.80;6.20;;;22.90;27.10;;;;;;6116579;23;20028;-63
2022/12/14 06:29:07;;;;;;;6.25;5.65;;;22.80;27.10;;;;;;6090414;23;20332;-63
2022/12/14 06:31:32;;;;;;;6.10;5.50;;;22.60;27.30;;;;;;6115546;23;20022;-60
2022/12/14 06:34:01;;;;;;;6.35;5.75;;;22.20;27.50;;;;;;6090250;23;20350;-63
2022/12/14 06:36:29;;;;;;;6.45;5.85;;;22.00;27.70;;;;;;6115502;23;20411;-63
2022/12/14 06:38:58;;;;;;;6.40;5.80;;;21.70;27.90;;;;;;6115606;23;20338;-63
2022/12/14 06:41:24;;;;;;;6.40;5.80;;;21.50;28.00;;;;;;6089196;23;20017;-63
2022/12/14 06:43:51;;;;;;;6.15;5.55;;;21.30;28.30;;;;;;6117479;23;20304;-63
2022/12/14 06:46:19;;;;;;;6.22;5.63;;;21.10;28.70;;;;;;6117677;23;20022;-62
2022/12/14 06:48:50;;;;;;;6.45;5.85;;;21.10;28.70;;;;;;6117216;23;20018;-62
2022/12/14 06:51:16;;;;;;;5.93;5.43;;;21.30;28.50;;;;;;6117328;23;20062;-63
2022/12/14 06:53:42;;;;;;;5.95;5.45;;;21.50;28.30;;;;;;6089809;23;20076;-62
2022/12/14 06:56:13;;;;;;;5.43;4.93;;;21.70;28.00;;;;;;6113749;23;20089;-62
2022/12/14 06:58:39;;;;;;;6.35;5.75;;;22.00;27.90;;;;;;6118620;23;20014;-62
2022/12/14 07:01:10;;;;;;;6.03;5.40;;;22.10;27.70;;;;;;6117052;23;20157;-62
2022/12/14 07:03:36;;;;;;;6.45;5.85;;;22.20;27.50;;;;;;6117645;23;20021;-63
2022/12/14 07:06:03;;;;;;;6.30;5.70;;;22.40;27.40;;;;;;6114367;23;20466;-63
2022/12/14 07:08:30;;;;;;;6.22;5.68;;;22.40;27.30;;;;;;6091324;23;20021;-63
2022/12/14 07:10:59;;;;;;;6.53;5.75;;;22.50;27.20;;;;;;6116632;23;20013;-62
2022/12/14 07:13:25;;;;;;;5.90;5.40;;;22.50;27.10;;;;;;6066951;23;20026;-62
2022/12/14 07:15:52;;;;;;;5.78;5.28;;;22.60;27.10;;;;;;6066219;23;20725;-63
2022/12/14 07:18:19;;;;;;;6.25;5.65;;;22.70;27.00;;;;;;6092030;23;20081;-62
2022/12/14 07:20:57;;;;;;;6.60;5.95;;;22.70;27.00;;;;;;6090499;23;20510;-63
2022/12/14 07:23:23;;;;;;;6.30;5.53;;;22.80;26.90;;;;;;6090733;23;20018;-61
2022/12/14 07:25:49;;;;;;;6.15;5.55;;;22.80;26.90;;;;;;6116857;23;20021;-62
2022/12/14 07:28:15;;;;;;;6.30;5.47;;;22.80;26.80;;;;;;6090549;23;20410;-62
2022/12/14 07:30:40;;;;;;;6.57;5.80;;;22.90;26.80;;;;;;6115740;23;20010;-62
2022/12/14 07:33:06;;;;;;;6.85;6.15;;;22.80;26.80;;;;;;6091134;23;20505;-63
2022/12/14 07:35:32;;;;;;;8.85;6.32;;;22.80;26.70;;;;;;6116045;23;20040;-63
2022/12/14 07:37:57;;;;;;;8.57;6.20;;;22.80;26.80;;;;;;6066407;23;20025;-62
2022/12/14 07:40:23;;;;;;;10.63;5.90;;;22.80;26.90;;;;;;6089419;23;20125;-62
2022/12/14 07:42:49;;;;;;;6.65;5.93;;;22.80;26.90;;;;;;6111400;23;20089;-62
2022/12/14 07:45:15;;;;;;;7.82;5.93;;;22.80;27.10;;;;;;6087771;23;20808;-63
2022/12/14 07:47:41;;;;;;;10.65;5.68;;;22.80;27.20;;;;;;6116274;23;20025;-63
2022/12/14 07:50:07;;;;;;;7.72;5.13;;;22.80;27.20;;;;;;6089236;23;20092;-63
2022/12/14 07:52:32;;;;;;;9.35;5.93;;;22.80;27.30;;;;;;6116333;23;20022;-63
2022/12/14 07:54:58;;;;;;;9.57;6.45;;;22.80;27.50;;;;;;6064306;23;20489;-62
2022/12/14 07:57:23;;;;;;;8.25;6.13;;;22.80;27.70;;;;;;6113556;23;20349;-63
2022/12/14 07:59:49;;;;;;;6.85;5.07;;;22.80;27.70;;;;;;6114591;23;20010;-63
2022/12/14 08:02:15;;;;;;;6.55;5.68;;;22.80;27.80;;;;;;6065722;23;20429;-63
2022/12/14 08:04:41;;;;;;;6.72;5.93;;;23.00;27.90;;;;;;6112907;23;20033;-63
2022/12/14 08:07:07;;;;;;;7.65;5.65;;;23.10;27.70;;;;;;6087230;23;20029;-63
2022/12/14 08:09:32;;;;;;;8.32;5.78;;;23.20;27.70;;;;;;6064798;23;20025;-64
2022/12/14 08:11:58;;;;;;;7.97;5.70;;;23.40;27.70;;;;;;6088290;23;20025;-64
2022/12/14 08:14:24;;;;;;;7.13;6.00;;;23.50;27.60;;;;;;6087888;23;20053;-63
2022/12/14 08:16:49;;;;;;;7.00;6.00;;;23.60;27.60;;;;;;6115051;23;20021;-63
2022/12/14 08:19:16;;;;;;;10.00;5.60;;;23.60;27.50;;;;;;6089114;23;20345;-63
2022/12/14 08:21:44;;;;;;;7.85;5.63;;;23.70;27.50;;;;;;6065588;23;20050;-62
2022/12/14 08:24:11;;;;;;;7.00;5.57;;;23.70;28.20;;;;;;6115564;23;20025;-63
2022/12/14 08:26:37;;;;;;;8.65;5.93;;;23.80;27.60;;;;;;6113876;23;20026;-62
2022/12/14 08:29:04;;;;;;;6.95;6.03;;;23.80;27.50;;;;;;6115975;23;20021;-62
2022/12/14 08:31:31;;;;;;;6.35;5.70;;;23.90;27.60;;;;;;6087707;23;20033;-62
2022/12/14 08:34:00;;;;;;;7.28;5.20;;;23.90;27.60;;;;;;6088911;23;20028;-64
2022/12/14 08:36:29;;;;;;;6.03;5.43;;;23.80;27.70;;;;;;6115259;23;20380;-63
2022/12/14 08:39:00;;;;;;;6.85;5.82;;;23.80;28.40;;;;;;6065776;23;20025;-62
2022/12/14 08:41:27;;;;;;;6.18;5.57;;;23.90;27.80;;;;;;6115253;23;20014;-62
2022/12/14 08:43:55;;;;;;;6.97;5.65;;;24.00;27.80;;;;;;6114588;23;20047;-62
2022/12/14 08:46:22;;;;;;;14.57;8.68;;;24.00;27.80;;;;;;6114998;23;20449;-62
2022/12/14 08:48:50;;;;;;;19.27;11.68;;;24.10;28.10;;;;;;6116339;23;20014;-62
2022/12/14 08:51:16;;;;;;;23.85;12.57;;;24.20;28.50;;;;;;6116077;23;20406;-62
2022/12/14 08:53:42;;;;;;;18.08;12.02;;;24.20;28.60;;;;;;6089890;23;20080;-62
2022/12/14 08:56:10;;;;;;;21.05;11.65;;;24.20;28.80;;;;;;6115377;23;20081;-62
2022/12/14 08:58:36;;;;;;;15.43;10.70;;;24.20;29.00;;;;;;6088780;23;20357;-63
2022/12/14 09:01:08;;;;;;;19.83;11.10;;;24.00;29.00;;;;;;6115168;23;20014;-62
2022/12/14 09:03:34;;;;;;;18.42;10.55;;;23.60;29.40;;;;;;6090056;23;20014;-64
2022/12/14 09:06:04;;;;;;;15.50;11.23;;;23.20;29.90;;;;;;6113973;23;20081;-61
2022/12/14 09:08:31;;;;;;;16.50;9.50;;;22.80;30.30;;;;;;6065935;23;20010;-62
2022/12/14 09:10:57;;;;;;;21.23;10.68;;;22.40;30.60;;;;;;6117069;23;20042;-63
2022/12/14 09:13:23;;;;;;;17.35;10.07;;;22.20;31.00;;;;;;6117926;23;20018;-62
2022/12/14 09:16:18;;;;;;;16.30;9.63;;;22.10;31.10;;;;;;6116638;23;20010;-65
2022/12/14 09:18:45;;;;;;;14.27;9.45;;;22.40;31.10;;;;;;6118198;23;20010;-65
2022/12/14 09:21:11;;;;;;;11.75;8.25;;;22.70;30.40;;;;;;6117630;23;20014;-63
2022/12/14 09:23:38;;;;;;;12.40;8.95;;;23.00;30.10;;;;;;6091728;23;20799;-64
2022/12/14 09:26:14;;;;;;;14.57;9.05;;;23.20;30.00;;;;;;6090664;23;20466;-63
2022/12/14 09:28:41;;;;;;;13.32;8.30;;;23.40;30.00;;;;;;6118124;23;20024;-63
2022/12/14 09:31:14;;;;;;;11.68;8.23;;;23.60;29.80;;;;;;6067642;23;20057;-63
2022/12/14 09:33:40;;;;;;;11.10;8.38;;;23.80;29.70;;;;;;6118452;23;20026;-63
2022/12/14 09:36:09;;;;;;;8.30;7.20;;;23.90;29.50;;;;;;6118131;23;20021;-64
2022/12/14 09:38:36;;;;;;;12.50;7.53;;;24.00;29.40;;;;;;6067805;23;20430;-64
2022/12/14 09:41:05;;;;;;;9.07;6.72;;;24.20;29.40;;;;;;6116383;23;20334;-63
2022/12/14 09:43:47;;;;;;;11.85;7.60;;;24.20;29.30;;;;;;6116172;23;20014;-65
2022/12/14 09:46:54;;;;;;;9.93;7.18;;;24.30;29.20;;;;;;6115460;23;20022;-64
2022/12/14 09:49:41;;;;;;;8.77;7.25;;;24.30;29.20;;;;;;5970148;24;20252;-65
2022/12/14 09:52:14;;;;;;;8.65;6.75;;;24.30;29.10;;;;;;5971728;24;20395;-63
2022/12/14 09:54:43;;;;;;;9.18;7.25;;;24.30;29.60;;;;;;6030690;23;20025;-63
2022/12/14 09:57:35;;;;;;;7.88;6.80;;;24.30;29.00;;;;;;6091536;23;20089;-64
2022/12/14 10:00:03;;;;;;;10.38;6.65;;;24.30;29.00;;;;;;6115290;23;20024;-64
2022/12/14 10:02:47;;;;;;;7.95;6.90;;;24.20;29.20;;;;;;6116906;23;20081;-64
2022/12/14 10:05:13;;;;;;;8.98;6.82;;;24.30;29.30;;;;;;6091513;23;20382;-65
2022/12/14 10:07:54;;;;;;;8.50;6.20;;;24.30;29.20;;;;;;6116893;23;20093;-64
2022/12/14 10:10:45;;;;;;;6.80;5.97;;;24.30;29.30;;;;;;6116608;23;20033;-62
2022/12/14 10:13:41;;;;;;;7.13;6.40;;;24.30;29.30;;;;;;6073688;23;20494;-63
2022/12/14 10:16:06;;;;;;;6.32;5.65;;;24.30;29.50;;;;;;6116023;23;20339;-63
2022/12/14 10:19:10;;;;;;;8.18;6.30;;;24.20;29.50;;;;;;6090642;23;20028;-63
2022/12/14 10:21:45;;;;;;;6.22;5.50;;;24.10;29.70;;;;;;6115537;23;20010;-64
2022/12/14 10:24:20;;;;;;;6.80;5.40;;;24.00;29.80;;;;;;6091021;23;20081;-64
2022/12/14 10:26:52;;;;;;;8.32;5.88;;;24.00;30.00;;;;;;6114739;23;20024;-63
2022/12/14 10:29:40;;;;;;;6.90;6.10;;;24.00;29.90;;;;;;6117076;23;20014;-63
2022/12/14 10:32:14;;;;;;;9.57;5.60;;;24.00;29.90;;;;;;6114202;23;20081;-63
2022/12/14 10:34:42;;;;;;;8.15;5.68;;;23.90;29.90;;;;;;6115230;23;20032;-63
2022/12/14 10:37:33;;;;;;;9.10;6.05;;;23.90;29.90;;;;;;6089148;23;20033;-63
2022/12/14 10:40:03;;;;;;;16.30;6.85;;;24.00;29.90;;;;;;6065696;23;20109;-62
2022/12/14 10:42:53;;;;;;;6.40;5.10;;;23.90;29.80;;;;;;6090292;23;20022;-61
2022/12/14 10:45:37;;;;;;;8.85;5.50;;;23.90;29.70;;;;;;6088631;23;20096;-64
2022/12/14 10:48:22;;;;;;;9.77;5.35;;;23.90;29.60;;;;;;6114636;23;20062;-63
2022/12/14 10:51:16;;;;;;;7.55;5.72;;;23.90;29.70;;;;;;6084426;23;20084;-63
2022/12/14 10:54:10;;;;;;;8.23;5.30;;;23.90;29.60;;;;;;6088714;23;20251;-64
2022/12/14 10:56:40;;;;;;;7.55;5.75;;;23.90;29.70;;;;;;6088805;23;20498;-64
2022/12/14 10:59:24;;;;;;;6.40;5.50;;;23.90;29.80;;;;;;6065635;23;20490;-64
2022/12/14 11:02:00;;;;;;;7.07;4.95;;;23.80;29.70;;;;;;6064915;23;20026;-64
2022/12/14 11:04:41;;;;;;;5.97;5.18;;;23.80;29.70;;;;;;6089268;23;20025;-64
2022/12/14 11:07:10;;;;;;;6.25;4.97;;;23.90;29.70;;;;;;6064471;23;20026;-63
2022/12/14 11:09:38;;;;;;;5.53;4.93;;;23.90;29.70;;;;;;6088579;23;20026;-63
2022/12/14 11:12:13;;;;;;;6.03;4.93;;;23.90;29.60;;;;;;6064475;23;20025;-64
2022/12/14 11:15:03;;;;;;;6.57;4.85;;;23.90;29.70;;;;;;6089610;23;20028;-64
2022/12/14 11:17:39;;;;;;;;;;;23.80;29.70;;;;;;6090445;23;20113;-63
2022/12/14 11:20:16;;;;;;;5.35;4.65;;;23.80;29.70;;;;;;6114531;23;19923;-63
2022/12/14 11:22:44;;;;;;;9.95;5.30;;;23.80;29.90;;;;;;6088738;23;20519;-64
2022/12/14 11:25:28;;;;;;;8.20;5.30;;;23.80;30.00;;;;;;6115525;23;20081;-63
2022/12/14 11:27:55;;;;;;;6.60;4.70;;;23.80;30.30;;;;;;6117317;23;20378;-63
2022/12/14 11:30:21;;;;;;;7.03;4.68;;;23.90;30.30;;;;;;6088227;23;20056;-63
2022/12/14 11:32:48;;;;;;;8.20;4.85;;;23.90;30.40;;;;;;6067491;23;20026;-63
2022/12/14 11:35:19;;;;;;;8.77;5.00;;;23.90;30.50;;;;;;6115356;23;20145;-63
2022/12/14 11:37:47;;;;;;;;;;;23.90;30.50;;;;;;6090726;23;20022;-63
2022/12/14 11:40:24;;;;;;;6.22;4.43;;;23.90;30.80;;;;;;6089797;23;19921;-64
2022/12/14 11:42:57;;;;;;;5.38;4.32;;;23.90;30.70;;;;;;6066897;23;20736;-64
2022/12/14 11:45:25;;;;;;;4.72;4.32;;;23.90;30.80;;;;;;6089817;23;20071;-63
2022/12/14 11:48:22;;;;;;;5.43;4.38;;;23.90;30.80;;;;;;6116428;23;20018;-63
2022/12/14 11:50:50;;;;;;;7.93;5.03;;;23.90;30.90;;;;;;6066018;23;20024;-63
2022/12/14 11:53:19;;;;;;;8.30;4.60;;;23.90;30.80;;;;;;6087282;23;20652;-62
2022/12/14 11:55:56;;;;;;;5.68;4.40;;;23.90;30.70;;;;;;6087617;23;20557;-63
2022/12/14 11:58:29;;;;;;;5.95;4.18;;;23.90;30.70;;;;;;6115643;23;20342;-62
2022/12/14 12:01:11;;;;;;;5.25;4.07;;;23.90;30.90;;;;;;6114703;23;20018;-63
2022/12/14 12:03:43;;;;;;;6.80;4.47;;;23.90;30.80;;;;;;6064189;23;20018;-63
2022/12/14 12:06:11;;;;;;;5.07;4.30;;;23.80;30.80;;;;;;6088559;23;20017;-63
2022/12/14 12:08:40;;;;;;;9.93;4.85;;;23.90;30.90;;;;;;6116107;23;20469;-63
2022/12/14 12:11:16;;;;;;;4.75;4.05;;;23.90;31.20;;;;;;6088702;23;20021;-64
2022/12/14 12:13:46;;;;;;;7.07;4.45;;;23.90;31.50;;;;;;6088768;23;20025;-64
2022/12/14 12:16:22;;;;;;;4.72;3.97;;;23.90;32.00;;;;;;6088698;23;20022;-65
2022/12/14 12:18:58;;;;;;;4.68;3.83;;;23.90;31.70;;;;;;6116220;23;20014;-65
2022/12/14 12:21:29;;;;;;;9.98;4.20;;;23.90;31.60;;;;;;6115316;23;20072;-64
2022/12/14 12:24:19;;;;;;;5.07;3.45;;;23.90;31.60;;;;;;6090031;23;20084;-64
2022/12/14 12:26:50;;;;;;;4.70;3.60;;;23.90;31.60;;;;;;6064541;23;20469;-63
2022/12/14 12:29:22;;;;;;;7.95;4.05;;;23.90;31.60;;;;;;6064981;23;20041;-65
2022/12/14 12:32:01;;;;;;;4.45;3.72;;;23.90;31.60;;;;;;6113409;23;20017;-64
2022/12/14 12:34:41;;;;;;;5.70;3.80;;;23.90;31.60;;;;;;6114508;23;20025;-63
2022/12/14 12:37:39;;;;;;;3.95;3.20;;;23.90;31.60;;;;;;6114928;23;20125;-63
2022/12/14 12:40:23;;;;;;;4.82;3.50;;;23.90;31.60;;;;;;6052875;23;20107;-64
2022/12/14 12:42:50;;;;;;;4.63;3.80;;;23.90;31.70;;;;;;6116330;23;20005;-64
2022/12/14 12:45:38;;;;;;;3.95;3.63;;;23.90;31.70;;;;;;6088812;23;20452;-64
2022/12/14 12:48:28;;;;;;;5.80;3.95;;;23.90;31.70;;;;;;6115450;23;20024;-64
2022/12/14 12:51:00;;;;;;;5.70;3.88;;;23.90;31.70;;;;;;6116142;23;20449;-64
2022/12/14 12:53:29;;;;;;;3.60;3.30;;;23.90;31.50;;;;;;6116480;23;20017;-64
2022/12/14 12:56:13;;;;;;;4.15;3.47;;;23.90;31.50;;;;;;6089440;23;20085;-64
2022/12/14 12:58:39;;;;;;;4.30;3.40;;;23.90;31.50;;;;;;6090248;23;20010;-64
2022/12/14 13:01:20;;;;;;;5.20;3.63;;;24.00;32.20;;;;;;6089273;23;20172;-63
2022/12/14 13:03:47;;;;;;;;;;;23.90;32.20;;;;;;6116361;23;20073;-64
2022/12/14 13:06:39;;;;;;;4.22;3.38;;;23.90;31.50;;;;;;6115675;23;20254;-64
2022/12/14 13:09:35;;;;;;;3.72;3.33;;;23.90;31.40;;;;;;6115955;23;20018;-64
2022/12/14 13:12:04;;;;;;;4.53;3.63;;;23.90;31.40;;;;;;6115516;23;20022;-63
2022/12/14 13:14:36;;;;;;;4.32;3.50;;;23.90;31.30;;;;;;6115853;23;20053;-64
2022/12/14 13:17:04;;;;;;;3.33;3.03;;;23.90;31.30;;;;;;6113918;23;20105;-64
2022/12/14 13:19:41;;;;;;;5.13;3.47;;;23.90;31.20;;;;;;6089807;23;20021;-65
2022/12/14 13:22:11;;;;;;;5.47;3.90;;;23.90;31.20;;;;;;6089957;23;20536;-63
2022/12/14 13:24:37;;;;;;;;;;;23.90;31.20;;;;;;6114664;23;20014;-64
2022/12/14 13:27:11;;;;;;;3.35;3.05;;;23.90;31.20;;;;;;6089224;23;20427;-64
2022/12/14 13:29:49;;;;;;;4.22;3.85;;;23.90;31.20;;;;;;6064667;23;20049;-64
2022/12/14 13:32:30;;;;;;;3.25;2.95;;;23.90;31.20;;;;;;6113656;23;20092;-63